sensor_id;sensor_type;location;lat;lon;timestamp;pressure;altitude;pressure_sealevel;temperature
19282;BMP180;9774;52.034;5.342;2023-07-02T00:00:11;100529.00;;;23.60
19282;BMP180;9774;52.034;5.342;2023-07-02T00:02:39;100516.00;;;23.60
19282;BMP180;9774;52.034;5.342;2023-07-02T00:05:07;100508.00;;;23.50
19282;BMP180;9774;52.034;5.342;2023-07-02T00:07:34;100520.00;;;23.40
19282;BMP180;9774;52.034;5.342;2023-07-02T00:10:04;100522.00;;;23.40
19282;BMP180;9774;52.034;5.342;2023-07-02T00:12:31;100532.00;;;23.30
19282;BMP180;9774;52.034;5.342;2023-07-02T00:14:58;100533.00;;;23.30
19282;BMP180;9774;52.034;5.342;2023-07-02T00:17:26;100536.00;;;23.20
19282;BMP180;9774;52.034;5.342;2023-07-02T00:19:53;100536.00;;;23.10
19282;BMP180;9774;52.034;5.342;2023-07-02T00:22:20;100536.00;;;23.10
19282;BMP180;9774;52.034;5.342;2023-07-02T00:24:48;100547.00;;;23.00
19282;BMP180;9774;52.034;5.342;2023-07-02T00:27:18;100545.00;;;22.90
19282;BMP180;9774;52.034;5.342;2023-07-02T00:29:45;100550.00;;;22.80
19282;BMP180;9774;52.034;5.342;2023-07-02T00:32:13;100553.00;;;22.80
19282;BMP180;9774;52.034;5.342;2023-07-02T00:34:40;100541.00;;;22.70
19282;BMP180;9774;52.034;5.342;2023-07-02T00:37:10;100542.00;;;22.60
19282;BMP180;9774;52.034;5.342;2023-07-02T00:39:38;100539.00;;;22.60
19282;BMP180;9774;52.034;5.342;2023-07-02T00:42:05;100541.00;;;22.50
19282;BMP180;9774;52.034;5.342;2023-07-02T00:44:35;100542.00;;;22.50
19282;BMP180;9774;52.034;5.342;2023-07-02T00:47:06;100543.00;;;22.50
19282;BMP180;9774;52.034;5.342;2023-07-02T00:49:34;100541.00;;;22.40
19282;BMP180;9774;52.034;5.342;2023-07-02T00:52:01;100533.00;;;22.40
19282;BMP180;9774;52.034;5.342;2023-07-02T00:54:29;100544.00;;;22.30
19282;BMP180;9774;52.034;5.342;2023-07-02T00:56:56;100539.00;;;22.30
19282;BMP180;9774;52.034;5.342;2023-07-02T00:59:29;100546.00;;;22.30
19282;BMP180;9774;52.034;5.342;2023-07-02T01:01:58;100548.00;;;22.20
19282;BMP180;9774;52.034;5.342;2023-07-02T01:04:25;100549.00;;;22.20
19282;BMP180;9774;52.034;5.342;2023-07-02T01:06:53;100548.00;;;22.20
19282;BMP180;9774;52.034;5.342;2023-07-02T01:09:23;100546.00;;;22.10
19282;BMP180;9774;52.034;5.342;2023-07-02T01:11:54;100547.00;;;22.10
19282;BMP180;9774;52.034;5.342;2023-07-02T01:14:25;100545.00;;;22.00
19282;BMP180;9774;52.034;5.342;2023-07-02T01:16:56;100550.00;;;22.00
19282;BMP180;9774;52.034;5.342;2023-07-02T01:19:38;100555.00;;;21.90
19282;BMP180;9774;52.034;5.342;2023-07-02T01:22:08;100557.00;;;22.00
19282;BMP180;9774;52.034;5.342;2023-07-02T01:24:36;100564.00;;;21.90
19282;BMP180;9774;52.034;5.342;2023-07-02T01:27:04;100557.00;;;21.90
19282;BMP180;9774;52.034;5.342;2023-07-02T01:29:32;100561.00;;;21.90
19282;BMP180;9774;52.034;5.342;2023-07-02T01:32:03;100558.00;;;21.80
19282;BMP180;9774;52.034;5.342;2023-07-02T01:34:32;100559.00;;;21.80
19282;BMP180;9774;52.034;5.342;2023-07-02T01:36:59;100559.00;;;21.80
19282;BMP180;9774;52.034;5.342;2023-07-02T01:39:27;100557.00;;;21.80
19282;BMP180;9774;52.034;5.342;2023-07-02T01:41:54;100555.00;;;21.70
19282;BMP180;9774;52.034;5.342;2023-07-02T01:44:22;100557.00;;;21.70
19282;BMP180;9774;52.034;5.342;2023-07-02T01:46:49;100559.00;;;21.70
19282;BMP180;9774;52.034;5.342;2023-07-02T01:49:18;100562.00;;;21.60
19282;BMP180;9774;52.034;5.342;2023-07-02T01:51:49;100567.00;;;21.60
19282;BMP180;9774;52.034;5.342;2023-07-02T01:54:17;100561.00;;;21.60
19282;BMP180;9774;52.034;5.342;2023-07-02T01:56:44;100562.00;;;21.50
19282;BMP180;9774;52.034;5.342;2023-07-02T01:59:11;100570.00;;;21.50
19282;BMP180;9774;52.034;5.342;2023-07-02T02:01:39;100560.00;;;21.50
19282;BMP180;9774;52.034;5.342;2023-07-02T02:04:07;100563.00;;;21.40
19282;BMP180;9774;52.034;5.342;2023-07-02T02:06:35;100567.00;;;21.40
19282;BMP180;9774;52.034;5.342;2023-07-02T02:09:05;100570.00;;;21.40
19282;BMP180;9774;52.034;5.342;2023-07-02T02:11:33;100570.00;;;21.40
19282;BMP180;9774;52.034;5.342;2023-07-02T02:14:00;100567.00;;;21.40
19282;BMP180;9774;52.034;5.342;2023-07-02T02:16:28;100567.00;;;21.30
19282;BMP180;9774;52.034;5.342;2023-07-02T02:18:56;100569.00;;;21.30
19282;BMP180;9774;52.034;5.342;2023-07-02T02:21:23;100564.00;;;21.30
19282;BMP180;9774;52.034;5.342;2023-07-02T02:23:51;100565.00;;;21.30
19282;BMP180;9774;52.034;5.342;2023-07-02T02:26:20;100568.00;;;21.30
19282;BMP180;9774;52.034;5.342;2023-07-02T02:28:48;100574.00;;;21.30
19282;BMP180;9774;52.034;5.342;2023-07-02T02:31:15;100575.00;;;21.20
19282;BMP180;9774;52.034;5.342;2023-07-02T02:33:43;100579.00;;;21.20
19282;BMP180;9774;52.034;5.342;2023-07-02T02:36:10;100578.00;;;21.20
19282;BMP180;9774;52.034;5.342;2023-07-02T02:38:37;100590.00;;;21.20
19282;BMP180;9774;52.034;5.342;2023-07-02T02:41:05;100591.00;;;21.20
19282;BMP180;9774;52.034;5.342;2023-07-02T02:43:35;100590.00;;;21.10
19282;BMP180;9774;52.034;5.342;2023-07-02T02:46:03;100583.00;;;21.10
19282;BMP180;9774;52.034;5.342;2023-07-02T02:48:30;100587.00;;;21.10
19282;BMP180;9774;52.034;5.342;2023-07-02T02:50:57;100579.00;;;21.10
19282;BMP180;9774;52.034;5.342;2023-07-02T02:53:25;100586.00;;;21.10
19282;BMP180;9774;52.034;5.342;2023-07-02T02:55:53;100591.00;;;21.00
19282;BMP180;9774;52.034;5.342;2023-07-02T02:58:20;100590.00;;;21.00
19282;BMP180;9774;52.034;5.342;2023-07-02T03:00:50;100594.00;;;21.00
19282;BMP180;9774;52.034;5.342;2023-07-02T03:03:17;100594.00;;;21.00
19282;BMP180;9774;52.034;5.342;2023-07-02T03:05:46;100597.00;;;21.00
19282;BMP180;9774;52.034;5.342;2023-07-02T03:08:14;100605.00;;;21.00
19282;BMP180;9774;52.034;5.342;2023-07-02T03:10:42;100601.00;;;21.00
19282;BMP180;9774;52.034;5.342;2023-07-02T03:13:09;100601.00;;;21.00
19282;BMP180;9774;52.034;5.342;2023-07-02T03:15:36;100612.00;;;20.90
19282;BMP180;9774;52.034;5.342;2023-07-02T03:18:05;100611.00;;;20.90
19282;BMP180;9774;52.034;5.342;2023-07-02T03:20:32;100605.00;;;20.90
19282;BMP180;9774;52.034;5.342;2023-07-02T03:22:59;100608.00;;;20.90
19282;BMP180;9774;52.034;5.342;2023-07-02T03:25:27;100610.00;;;20.90
19282;BMP180;9774;52.034;5.342;2023-07-02T03:27:54;100610.00;;;20.80
19282;BMP180;9774;52.034;5.342;2023-07-02T03:30:21;100612.00;;;20.80
19282;BMP180;9774;52.034;5.342;2023-07-02T03:32:50;100609.00;;;20.80
19282;BMP180;9774;52.034;5.342;2023-07-02T03:35:18;100615.00;;;20.80
19282;BMP180;9774;52.034;5.342;2023-07-02T03:37:46;100612.00;;;20.80
19282;BMP180;9774;52.034;5.342;2023-07-02T03:40:13;100620.00;;;20.70
19282;BMP180;9774;52.034;5.342;2023-07-02T03:42:41;100624.00;;;20.70
19282;BMP180;9774;52.034;5.342;2023-07-02T03:45:09;100621.00;;;20.70
19282;BMP180;9774;52.034;5.342;2023-07-02T03:47:36;100615.00;;;20.70
19282;BMP180;9774;52.034;5.342;2023-07-02T03:50:04;100610.00;;;20.60
19282;BMP180;9774;52.034;5.342;2023-07-02T03:52:33;100620.00;;;20.60
19282;BMP180;9774;52.034;5.342;2023-07-02T03:55:00;100610.00;;;20.60
19282;BMP180;9774;52.034;5.342;2023-07-02T03:57:28;100616.00;;;20.60
19282;BMP180;9774;52.034;5.342;2023-07-02T03:59:56;100625.00;;;20.60
19282;BMP180;9774;52.034;5.342;2023-07-02T04:02:23;100624.00;;;20.50
19282;BMP180;9774;52.034;5.342;2023-07-02T04:04:51;100628.00;;;20.50
19282;BMP180;9774;52.034;5.342;2023-07-02T04:07:18;100633.00;;;20.50
19282;BMP180;9774;52.034;5.342;2023-07-02T04:09:46;100631.00;;;20.50
19282;BMP180;9774;52.034;5.342;2023-07-02T04:12:14;100634.00;;;20.50
19282;BMP180;9774;52.034;5.342;2023-07-02T04:14:41;100643.00;;;20.50
19282;BMP180;9774;52.034;5.342;2023-07-02T04:17:08;100637.00;;;20.40
19282;BMP180;9774;52.034;5.342;2023-07-02T04:19:36;100649.00;;;20.40
19282;BMP180;9774;52.034;5.342;2023-07-02T04:22:03;100658.00;;;20.40
19282;BMP180;9774;52.034;5.342;2023-07-02T04:24:30;100650.00;;;20.40
19282;BMP180;9774;52.034;5.342;2023-07-02T04:26:59;100651.00;;;20.40
19282;BMP180;9774;52.034;5.342;2023-07-02T04:29:26;100651.00;;;20.40
19282;BMP180;9774;52.034;5.342;2023-07-02T04:31:54;100651.00;;;20.40
19282;BMP180;9774;52.034;5.342;2023-07-02T04:34:21;100651.00;;;20.40
19282;BMP180;9774;52.034;5.342;2023-07-02T04:36:48;100649.00;;;20.40
19282;BMP180;9774;52.034;5.342;2023-07-02T04:39:16;100651.00;;;20.40
19282;BMP180;9774;52.034;5.342;2023-07-02T04:41:43;100655.00;;;20.40
19282;BMP180;9774;52.034;5.342;2023-07-02T04:44:12;100655.00;;;20.40
19282;BMP180;9774;52.034;5.342;2023-07-02T04:46:39;100655.00;;;20.40
19282;BMP180;9774;52.034;5.342;2023-07-02T04:49:07;100661.00;;;20.40
19282;BMP180;9774;52.034;5.342;2023-07-02T04:51:34;100669.00;;;20.50
19282;BMP180;9774;52.034;5.342;2023-07-02T04:54:01;100661.00;;;20.50
19282;BMP180;9774;52.034;5.342;2023-07-02T04:56:28;100665.00;;;20.50
19282;BMP180;9774;52.034;5.342;2023-07-02T04:58:56;100665.00;;;20.50
19282;BMP180;9774;52.034;5.342;2023-07-02T05:01:24;100668.00;;;20.60
19282;BMP180;9774;52.034;5.342;2023-07-02T05:03:54;100661.00;;;20.60
19282;BMP180;9774;52.034;5.342;2023-07-02T05:06:21;100674.00;;;20.60
19282;BMP180;9774;52.034;5.342;2023-07-02T05:08:48;100672.00;;;20.70
19282;BMP180;9774;52.034;5.342;2023-07-02T05:11:16;100671.00;;;20.70
19282;BMP180;9774;52.034;5.342;2023-07-02T05:13:43;100675.00;;;20.70
19282;BMP180;9774;52.034;5.342;2023-07-02T05:16:10;100671.00;;;20.70
19282;BMP180;9774;52.034;5.342;2023-07-02T05:18:39;100683.00;;;20.70
19282;BMP180;9774;52.034;5.342;2023-07-02T05:21:06;100679.00;;;20.80
19282;BMP180;9774;52.034;5.342;2023-07-02T05:23:33;100687.00;;;20.80
19282;BMP180;9774;52.034;5.342;2023-07-02T05:26:01;100683.00;;;20.80
19282;BMP180;9774;52.034;5.342;2023-07-02T05:28:28;100680.00;;;20.80
19282;BMP180;9774;52.034;5.342;2023-07-02T05:30:55;100683.00;;;20.90
19282;BMP180;9774;52.034;5.342;2023-07-02T05:33:23;100688.00;;;20.90
19282;BMP180;9774;52.034;5.342;2023-07-02T05:35:51;100686.00;;;21.00
19282;BMP180;9774;52.034;5.342;2023-07-02T05:38:19;100690.00;;;21.00
19282;BMP180;9774;52.034;5.342;2023-07-02T05:40:47;100693.00;;;21.10
19282;BMP180;9774;52.034;5.342;2023-07-02T05:43:15;100703.00;;;21.20
19282;BMP180;9774;52.034;5.342;2023-07-02T05:45:42;100697.00;;;21.20
19282;BMP180;9774;52.034;5.342;2023-07-02T05:48:09;100698.00;;;21.30
19282;BMP180;9774;52.034;5.342;2023-07-02T05:50:37;100693.00;;;21.40
19282;BMP180;9774;52.034;5.342;2023-07-02T05:53:05;100713.00;;;21.40
19282;BMP180;9774;52.034;5.342;2023-07-02T05:55:33;100702.00;;;21.50
19282;BMP180;9774;52.034;5.342;2023-07-02T05:58:00;100707.00;;;21.50
19282;BMP180;9774;52.034;5.342;2023-07-02T06:00:29;100710.00;;;21.60
19282;BMP180;9774;52.034;5.342;2023-07-02T06:02:56;100713.00;;;21.70
19282;BMP180;9774;52.034;5.342;2023-07-02T06:05:23;100712.00;;;21.70
19282;BMP180;9774;52.034;5.342;2023-07-02T06:07:50;100710.00;;;21.80
19282;BMP180;9774;52.034;5.342;2023-07-02T06:10:19;100723.00;;;21.80
19282;BMP180;9774;52.034;5.342;2023-07-02T06:12:46;100720.00;;;21.90
19282;BMP180;9774;52.034;5.342;2023-07-02T06:15:14;100720.00;;;21.90
19282;BMP180;9774;52.034;5.342;2023-07-02T06:17:41;100721.00;;;22.00
19282;BMP180;9774;52.034;5.342;2023-07-02T06:20:09;100720.00;;;22.00
19282;BMP180;9774;52.034;5.342;2023-07-02T06:22:37;100724.00;;;22.10
19282;BMP180;9774;52.034;5.342;2023-07-02T06:25:05;100731.00;;;22.10
19282;BMP180;9774;52.034;5.342;2023-07-02T06:27:33;100736.00;;;22.20
19282;BMP180;9774;52.034;5.342;2023-07-02T06:30:01;100737.00;;;22.20
19282;BMP180;9774;52.034;5.342;2023-07-02T06:32:28;100737.00;;;22.20
19282;BMP180;9774;52.034;5.342;2023-07-02T06:34:56;100751.00;;;22.30
19282;BMP180;9774;52.034;5.342;2023-07-02T06:37:23;100738.00;;;22.30
19282;BMP180;9774;52.034;5.342;2023-07-02T06:39:50;100741.00;;;22.40
19282;BMP180;9774;52.034;5.342;2023-07-02T06:42:18;100734.00;;;22.40
19282;BMP180;9774;52.034;5.342;2023-07-02T06:44:47;100746.00;;;22.40
19282;BMP180;9774;52.034;5.342;2023-07-02T06:47:14;100747.00;;;22.50
19282;BMP180;9774;52.034;5.342;2023-07-02T06:49:42;100755.00;;;22.50
19282;BMP180;9774;52.034;5.342;2023-07-02T06:52:09;100758.00;;;22.60
19282;BMP180;9774;52.034;5.342;2023-07-02T06:54:36;100759.00;;;22.60
19282;BMP180;9774;52.034;5.342;2023-07-02T06:57:04;100762.00;;;22.60
19282;BMP180;9774;52.034;5.342;2023-07-02T06:59:31;100770.00;;;22.70
19282;BMP180;9774;52.034;5.342;2023-07-02T07:02:01;100778.00;;;22.60
19282;BMP180;9774;52.034;5.342;2023-07-02T07:04:29;100774.00;;;22.70
19282;BMP180;9774;52.034;5.342;2023-07-02T07:06:56;100770.00;;;22.70
19282;BMP180;9774;52.034;5.342;2023-07-02T07:09:23;100775.00;;;22.70
19282;BMP180;9774;52.034;5.342;2023-07-02T07:11:51;100779.00;;;22.80
19282;BMP180;9774;52.034;5.342;2023-07-02T07:14:20;100785.00;;;22.90
19282;BMP180;9774;52.034;5.342;2023-07-02T07:16:47;100787.00;;;22.90
19282;BMP180;9774;52.034;5.342;2023-07-02T07:19:16;100784.00;;;23.00
19282;BMP180;9774;52.034;5.342;2023-07-02T07:21:44;100789.00;;;23.00
19282;BMP180;9774;52.034;5.342;2023-07-02T07:24:11;100791.00;;;23.10
19282;BMP180;9774;52.034;5.342;2023-07-02T07:26:38;100797.00;;;23.10
19282;BMP180;9774;52.034;5.342;2023-07-02T07:29:05;100800.00;;;23.20
19282;BMP180;9774;52.034;5.342;2023-07-02T07:31:34;100804.00;;;23.20
19282;BMP180;9774;52.034;5.342;2023-07-02T07:34:01;100812.00;;;23.20
19282;BMP180;9774;52.034;5.342;2023-07-02T07:36:30;100805.00;;;23.20
19282;BMP180;9774;52.034;5.342;2023-07-02T07:38:57;100810.00;;;23.30
19282;BMP180;9774;52.034;5.342;2023-07-02T07:41:24;100807.00;;;23.30
19282;BMP180;9774;52.034;5.342;2023-07-02T07:43:51;100815.00;;;23.40
19282;BMP180;9774;52.034;5.342;2023-07-02T07:46:19;100798.00;;;23.40
19282;BMP180;9774;52.034;5.342;2023-07-02T07:48:46;100805.00;;;23.50
19282;BMP180;9774;52.034;5.342;2023-07-02T07:51:13;100814.00;;;23.50
19282;BMP180;9774;52.034;5.342;2023-07-02T07:53:42;100819.00;;;23.60
19282;BMP180;9774;52.034;5.342;2023-07-02T07:56:09;100822.00;;;23.60
19282;BMP180;9774;52.034;5.342;2023-07-02T07:58:36;100815.00;;;23.70
19282;BMP180;9774;52.034;5.342;2023-07-02T08:01:04;100825.00;;;23.70
19282;BMP180;9774;52.034;5.342;2023-07-02T08:03:31;100816.00;;;23.70
19282;BMP180;9774;52.034;5.342;2023-07-02T08:05:58;100827.00;;;23.70
19282;BMP180;9774;52.034;5.342;2023-07-02T08:08:26;100825.00;;;23.80
19282;BMP180;9774;52.034;5.342;2023-07-02T08:10:54;100831.00;;;23.80
19282;BMP180;9774;52.034;5.342;2023-07-02T08:13:21;100832.00;;;23.90
19282;BMP180;9774;52.034;5.342;2023-07-02T08:15:49;100824.00;;;24.00
19282;BMP180;9774;52.034;5.342;2023-07-02T08:18:16;100830.00;;;24.00
19282;BMP180;9774;52.034;5.342;2023-07-02T08:20:43;100838.00;;;24.00
19282;BMP180;9774;52.034;5.342;2023-07-02T08:23:11;100844.00;;;24.00
19282;BMP180;9774;52.034;5.342;2023-07-02T08:25:38;100838.00;;;24.00
19282;BMP180;9774;52.034;5.342;2023-07-02T08:28:07;100839.00;;;24.00
19282;BMP180;9774;52.034;5.342;2023-07-02T08:30:35;100835.00;;;24.00
19282;BMP180;9774;52.034;5.342;2023-07-02T08:33:02;100837.00;;;24.00
19282;BMP180;9774;52.034;5.342;2023-07-02T08:35:30;100839.00;;;24.00
19282;BMP180;9774;52.034;5.342;2023-07-02T08:37:57;100851.00;;;24.10
19282;BMP180;9774;52.034;5.342;2023-07-02T08:40:24;100851.00;;;24.10
19282;BMP180;9774;52.034;5.342;2023-07-02T08:42:52;100858.00;;;24.20
19282;BMP180;9774;52.034;5.342;2023-07-02T08:45:20;100858.00;;;24.30
19282;BMP180;9774;52.034;5.342;2023-07-02T08:47:49;100850.00;;;24.30
19282;BMP180;9774;52.034;5.342;2023-07-02T08:50:19;100856.00;;;24.30
19282;BMP180;9774;52.034;5.342;2023-07-02T08:52:47;100857.00;;;24.30
19282;BMP180;9774;52.034;5.342;2023-07-02T08:55:14;100859.00;;;24.40
19282;BMP180;9774;52.034;5.342;2023-07-02T08:57:48;100859.00;;;24.40
19282;BMP180;9774;52.034;5.342;2023-07-02T09:00:16;100851.00;;;24.50
19282;BMP180;9774;52.034;5.342;2023-07-02T09:02:45;100857.00;;;24.60
19282;BMP180;9774;52.034;5.342;2023-07-02T09:05:13;100869.00;;;24.70
19282;BMP180;9774;52.034;5.342;2023-07-02T09:07:47;100864.00;;;24.70
19282;BMP180;9774;52.034;5.342;2023-07-02T09:10:26;100859.00;;;24.80
19282;BMP180;9774;52.034;5.342;2023-07-02T09:13:03;100867.00;;;24.90
19282;BMP180;9774;52.034;5.342;2023-07-02T09:15:36;100852.00;;;25.00
19282;BMP180;9774;52.034;5.342;2023-07-02T09:18:17;100864.00;;;25.00
19282;BMP180;9774;52.034;5.342;2023-07-02T09:20:45;100870.00;;;25.10
19282;BMP180;9774;52.034;5.342;2023-07-02T09:23:14;100871.00;;;25.10
19282;BMP180;9774;52.034;5.342;2023-07-02T09:25:41;100863.00;;;25.10
19282;BMP180;9774;52.034;5.342;2023-07-02T09:28:16;100876.00;;;25.00
19282;BMP180;9774;52.034;5.342;2023-07-02T09:30:51;100869.00;;;25.00
19282;BMP180;9774;52.034;5.342;2023-07-02T09:33:20;100873.00;;;25.10
19282;BMP180;9774;52.034;5.342;2023-07-02T09:35:49;100872.00;;;25.10
19282;BMP180;9774;52.034;5.342;2023-07-02T09:38:18;100875.00;;;25.20
19282;BMP180;9774;52.034;5.342;2023-07-02T09:40:47;100874.00;;;25.20
19282;BMP180;9774;52.034;5.342;2023-07-02T09:43:16;100873.00;;;25.30
19282;BMP180;9774;52.034;5.342;2023-07-02T09:45:45;100865.00;;;25.30
19282;BMP180;9774;52.034;5.342;2023-07-02T09:48:13;100861.00;;;25.40
19282;BMP180;9774;52.034;5.342;2023-07-02T09:50:46;100855.00;;;25.50
19282;BMP180;9774;52.034;5.342;2023-07-02T09:53:14;100859.00;;;25.60
19282;BMP180;9774;52.034;5.342;2023-07-02T09:55:43;100854.00;;;25.70
19282;BMP180;9774;52.034;5.342;2023-07-02T09:58:10;100861.00;;;25.80
19282;BMP180;9774;52.034;5.342;2023-07-02T10:00:39;100861.00;;;25.90
19282;BMP180;9774;52.034;5.342;2023-07-02T10:03:06;100869.00;;;26.00
19282;BMP180;9774;52.034;5.342;2023-07-02T10:05:34;100874.00;;;26.00
19282;BMP180;9774;52.034;5.342;2023-07-02T10:08:14;100882.00;;;26.00
19282;BMP180;9774;52.034;5.342;2023-07-02T10:10:44;100885.00;;;26.20
19282;BMP180;9774;52.034;5.342;2023-07-02T10:13:11;100887.00;;;26.20
19282;BMP180;9774;52.034;5.342;2023-07-02T10:15:38;100876.00;;;26.30
19282;BMP180;9774;52.034;5.342;2023-07-02T10:18:06;100884.00;;;26.30
19282;BMP180;9774;52.034;5.342;2023-07-02T10:20:35;100878.00;;;26.30
19282;BMP180;9774;52.034;5.342;2023-07-02T10:23:03;100891.00;;;26.30
19282;BMP180;9774;52.034;5.342;2023-07-02T10:25:33;100884.00;;;26.40
19282;BMP180;9774;52.034;5.342;2023-07-02T10:28:14;100886.00;;;26.40
19282;BMP180;9774;52.034;5.342;2023-07-02T10:30:42;100886.00;;;26.50
19282;BMP180;9774;52.034;5.342;2023-07-02T10:33:11;100895.00;;;26.60
19282;BMP180;9774;52.034;5.342;2023-07-02T10:35:39;100901.00;;;26.60
19282;BMP180;9774;52.034;5.342;2023-07-02T10:38:12;100889.00;;;26.60
19282;BMP180;9774;52.034;5.342;2023-07-02T10:40:42;100887.00;;;26.60
19282;BMP180;9774;52.034;5.342;2023-07-02T10:43:10;100888.00;;;26.60
19282;BMP180;9774;52.034;5.342;2023-07-02T10:45:37;100890.00;;;26.60
19282;BMP180;9774;52.034;5.342;2023-07-02T10:48:08;100898.00;;;26.70
19282;BMP180;9774;52.034;5.342;2023-07-02T10:50:36;100897.00;;;26.70
19282;BMP180;9774;52.034;5.342;2023-07-02T10:53:03;100908.00;;;26.70
19282;BMP180;9774;52.034;5.342;2023-07-02T10:55:31;100889.00;;;26.70
19282;BMP180;9774;52.034;5.342;2023-07-02T10:58:07;100901.00;;;26.70
19282;BMP180;9774;52.034;5.342;2023-07-02T11:00:43;100898.00;;;26.60
19282;BMP180;9774;52.034;5.342;2023-07-02T11:03:17;100912.00;;;26.70
19282;BMP180;9774;52.034;5.342;2023-07-02T11:05:46;100914.00;;;26.70
19282;BMP180;9774;52.034;5.342;2023-07-02T11:08:13;100909.00;;;26.70
19282;BMP180;9774;52.034;5.342;2023-07-02T11:10:41;100907.00;;;26.60
19282;BMP180;9774;52.034;5.342;2023-07-02T11:13:15;100920.00;;;26.50
19282;BMP180;9774;52.034;5.342;2023-07-02T11:15:43;100925.00;;;26.40
19282;BMP180;9774;52.034;5.342;2023-07-02T11:18:12;100925.00;;;26.40
19282;BMP180;9774;52.034;5.342;2023-07-02T11:20:40;100919.00;;;26.40
19282;BMP180;9774;52.034;5.342;2023-07-02T11:23:17;100919.00;;;26.30
19282;BMP180;9774;52.034;5.342;2023-07-02T11:25:55;100921.00;;;26.30
19282;BMP180;9774;52.034;5.342;2023-07-02T11:28:25;100916.00;;;26.30
19282;BMP180;9774;52.034;5.342;2023-07-02T11:30:53;100921.00;;;26.20
19282;BMP180;9774;52.034;5.342;2023-07-02T11:33:31;100914.00;;;26.20
19282;BMP180;9774;52.034;5.342;2023-07-02T11:35:58;100916.00;;;26.20
19282;BMP180;9774;52.034;5.342;2023-07-02T11:38:26;100916.00;;;26.30
19282;BMP180;9774;52.034;5.342;2023-07-02T11:40:53;100923.00;;;26.30
19282;BMP180;9774;52.034;5.342;2023-07-02T11:43:20;100923.00;;;26.30
19282;BMP180;9774;52.034;5.342;2023-07-02T11:45:49;100917.00;;;26.30
19282;BMP180;9774;52.034;5.342;2023-07-02T11:48:16;100929.00;;;26.30
19282;BMP180;9774;52.034;5.342;2023-07-02T11:50:44;100927.00;;;26.30
19282;BMP180;9774;52.034;5.342;2023-07-02T11:53:11;100932.00;;;26.30
19282;BMP180;9774;52.034;5.342;2023-07-02T11:55:39;100925.00;;;26.30
19282;BMP180;9774;52.034;5.342;2023-07-02T11:58:07;100924.00;;;26.40
19282;BMP180;9774;52.034;5.342;2023-07-02T12:00:34;100932.00;;;26.40
19282;BMP180;9774;52.034;5.342;2023-07-02T12:03:02;100935.00;;;26.50
19282;BMP180;9774;52.034;5.342;2023-07-02T12:05:30;100936.00;;;26.60
19282;BMP180;9774;52.034;5.342;2023-07-02T12:07:57;100935.00;;;26.70
19282;BMP180;9774;52.034;5.342;2023-07-02T12:10:25;100934.00;;;26.80
19282;BMP180;9774;52.034;5.342;2023-07-02T12:12:52;100933.00;;;26.80
19282;BMP180;9774;52.034;5.342;2023-07-02T12:15:19;100940.00;;;26.80
19282;BMP180;9774;52.034;5.342;2023-07-02T12:17:47;100933.00;;;26.90
19282;BMP180;9774;52.034;5.342;2023-07-02T12:20:15;100943.00;;;26.90
19282;BMP180;9774;52.034;5.342;2023-07-02T12:22:43;100939.00;;;26.90
19282;BMP180;9774;52.034;5.342;2023-07-02T12:25:10;100944.00;;;27.00
19282;BMP180;9774;52.034;5.342;2023-07-02T12:27:38;100956.00;;;27.00
19282;BMP180;9774;52.034;5.342;2023-07-02T12:30:06;100941.00;;;27.00
19282;BMP180;9774;52.034;5.342;2023-07-02T12:32:34;100954.00;;;27.00
19282;BMP180;9774;52.034;5.342;2023-07-02T12:35:01;100958.00;;;27.00
19282;BMP180;9774;52.034;5.342;2023-07-02T12:37:31;100942.00;;;27.00
19282;BMP180;9774;52.034;5.342;2023-07-02T12:39:59;100948.00;;;27.10
19282;BMP180;9774;52.034;5.342;2023-07-02T12:42:26;100947.00;;;27.00
19282;BMP180;9774;52.034;5.342;2023-07-02T12:44:53;100955.00;;;27.00
19282;BMP180;9774;52.034;5.342;2023-07-02T12:47:21;100955.00;;;26.90
19282;BMP180;9774;52.034;5.342;2023-07-02T12:49:48;100953.00;;;26.90
19282;BMP180;9774;52.034;5.342;2023-07-02T12:52:15;100960.00;;;26.80
19282;BMP180;9774;52.034;5.342;2023-07-02T12:54:44;100958.00;;;26.80
19282;BMP180;9774;52.034;5.342;2023-07-02T12:57:11;100963.00;;;26.80
19282;BMP180;9774;52.034;5.342;2023-07-02T12:59:39;100957.00;;;26.70
19282;BMP180;9774;52.034;5.342;2023-07-02T13:02:06;100959.00;;;26.70
19282;BMP180;9774;52.034;5.342;2023-07-02T13:04:34;100957.00;;;26.60
19282;BMP180;9774;52.034;5.342;2023-07-02T13:07:01;100969.00;;;26.60
19282;BMP180;9774;52.034;5.342;2023-07-02T13:09:28;100962.00;;;26.60
19282;BMP180;9774;52.034;5.342;2023-07-02T13:11:57;100973.00;;;26.60
19282;BMP180;9774;52.034;5.342;2023-07-02T13:14:24;100971.00;;;26.60
19282;BMP180;9774;52.034;5.342;2023-07-02T13:16:52;100956.00;;;26.60
19282;BMP180;9774;52.034;5.342;2023-07-02T13:19:19;100969.00;;;26.60
19282;BMP180;9774;52.034;5.342;2023-07-02T13:21:46;100970.00;;;26.70
19282;BMP180;9774;52.034;5.342;2023-07-02T13:24:14;100965.00;;;26.70
19282;BMP180;9774;52.034;5.342;2023-07-02T13:26:41;100973.00;;;26.70
19282;BMP180;9774;52.034;5.342;2023-07-02T13:29:10;100971.00;;;26.70
19282;BMP180;9774;52.034;5.342;2023-07-02T13:31:37;100981.00;;;26.80
19282;BMP180;9774;52.034;5.342;2023-07-02T13:34:04;100987.00;;;26.80
19282;BMP180;9774;52.034;5.342;2023-07-02T13:36:32;100985.00;;;26.80
19282;BMP180;9774;52.034;5.342;2023-07-02T13:38:59;100985.00;;;26.90
19282;BMP180;9774;52.034;5.342;2023-07-02T13:41:26;100991.00;;;26.90
19282;BMP180;9774;52.034;5.342;2023-07-02T13:43:54;100988.00;;;26.90
19282;BMP180;9774;52.034;5.342;2023-07-02T13:46:23;100981.00;;;26.90
19282;BMP180;9774;52.034;5.342;2023-07-02T13:48:50;100985.00;;;26.90
19282;BMP180;9774;52.034;5.342;2023-07-02T13:51:17;100993.00;;;26.90
19282;BMP180;9774;52.034;5.342;2023-07-02T13:53:46;100985.00;;;26.90
19282;BMP180;9774;52.034;5.342;2023-07-02T13:56:13;100987.00;;;26.90
19282;BMP180;9774;52.034;5.342;2023-07-02T13:59:02;100982.00;;;26.80
19282;BMP180;9774;52.034;5.342;2023-07-02T14:01:29;100979.00;;;27.00
19282;BMP180;9774;52.034;5.342;2023-07-02T14:03:56;100975.00;;;27.10
19282;BMP180;9774;52.034;5.342;2023-07-02T14:06:24;100983.00;;;27.10
19282;BMP180;9774;52.034;5.342;2023-07-02T14:08:51;100980.00;;;27.10
19282;BMP180;9774;52.034;5.342;2023-07-02T14:11:19;100991.00;;;27.00
19282;BMP180;9774;52.034;5.342;2023-07-02T14:13:49;100986.00;;;27.00